createdAt,value
2023-12-22T00:00:09.041Z,2.57
2023-12-22T00:02:36.014Z,3.30
2023-12-22T00:05:02.836Z,3.10
2023-12-22T00:07:30.801Z,3.20
2023-12-22T00:09:57.767Z,6.70
2023-12-22T00:12:24.887Z,4.10
2023-12-22T00:14:51.627Z,2.37
2023-12-22T00:17:18.602Z,2.60
2023-12-22T00:19:45.379Z,1.93
2023-12-22T00:22:12.499Z,2.33
2023-12-22T00:24:40.426Z,3.33
2023-12-22T00:27:07.452Z,2.70
2023-12-22T00:29:36.924Z,3.20
2023-12-22T00:32:04.022Z,2.40
2023-12-22T00:34:31.067Z,3.40
2023-12-22T00:36:57.795Z,2.30
2023-12-22T00:39:24.526Z,2.10
2023-12-22T00:41:51.238Z,1.80
2023-12-22T00:44:17.925Z,2.00
2023-12-22T00:46:44.957Z,1.57
2023-12-22T00:49:11.984Z,1.87
2023-12-22T00:51:38.921Z,2.30
2023-12-22T00:54:05.637Z,1.43
2023-12-22T00:56:32.328Z,1.77
2023-12-22T00:59:05.354Z,1.70
2023-12-22T01:01:38.124Z,1.30
2023-12-22T01:04:05.198Z,2.90
2023-12-22T01:06:32.829Z,1.63
2023-12-22T01:08:59.763Z,4.07
2023-12-22T01:11:26.496Z,2.43
2023-12-22T01:13:53.386Z,2.67
2023-12-22T01:16:22.870Z,3.13
2023-12-22T01:18:49.943Z,1.50
2023-12-22T01:21:17.189Z,1.43
2023-12-22T01:23:44.093Z,1.90
2023-12-22T01:26:10.827Z,1.47
2023-12-22T01:29:02.997Z,1.83
2023-12-22T01:31:29.880Z,2.00
2023-12-22T01:33:56.729Z,1.63
2023-12-22T01:36:23.493Z,1.73
2023-12-22T01:38:50.516Z,1.60
2023-12-22T01:41:17.218Z,1.70
2023-12-22T01:43:44.234Z,1.80
2023-12-22T01:46:12.598Z,2.00
2023-12-22T01:48:40.184Z,1.70
2023-12-22T01:51:08.078Z,2.63
2023-12-22T01:53:38.391Z,1.80
2023-12-22T01:56:07.405Z,1.60
2023-12-22T01:58:37.424Z,1.60
2023-12-22T02:01:14.893Z,1.77
2023-12-22T02:03:42.009Z,1.67
2023-12-22T02:06:09.123Z,1.70
2023-12-22T02:08:36.130Z,1.80
2023-12-22T02:11:03.930Z,1.73
2023-12-22T02:13:30.935Z,1.50
2023-12-22T02:16:04.925Z,1.83
2023-12-22T02:18:39.960Z,1.77
2023-12-22T02:21:06.871Z,2.10
2023-12-22T02:23:33.829Z,2.63
2023-12-22T02:26:11.284Z,2.27
2023-12-22T02:28:40.967Z,3.13
2023-12-22T02:31:48.924Z,1.73
2023-12-22T02:34:22.942Z,1.80
2023-12-22T02:36:51.316Z,2.37
2023-12-22T02:39:20.104Z,1.83
2023-12-22T02:41:50.753Z,2.37
2023-12-22T02:44:17.900Z,3.37
2023-12-22T02:46:44.724Z,2.53
2023-12-22T02:49:11.693Z,2.50
2023-12-22T02:51:38.449Z,2.00
2023-12-22T02:54:05.278Z,2.13
2023-12-22T02:56:32.229Z,1.97
2023-12-22T02:58:59.169Z,1.60
2023-12-22T03:01:26.014Z,2.93
2023-12-22T03:03:52.814Z,2.00
2023-12-22T03:06:19.598Z,1.80
2023-12-22T03:08:46.441Z,2.67
2023-12-22T03:11:13.426Z,1.87
2023-12-22T03:13:40.285Z,1.77
2023-12-22T03:16:10.385Z,1.57
2023-12-22T03:18:40.212Z,2.80
2023-12-22T03:21:19.902Z,1.50
2023-12-22T03:23:49.817Z,1.83
2023-12-22T03:26:16.626Z,2.27
2023-12-22T03:28:43.366Z,1.83
2023-12-22T03:31:10.258Z,2.30
2023-12-22T03:33:37.158Z,2.90
2023-12-22T03:36:04.397Z,2.30
2023-12-22T03:38:31.197Z,2.43
2023-12-22T03:40:58.321Z,2.30
2023-12-22T03:43:25.195Z,2.20
2023-12-22T03:45:51.903Z,1.90
2023-12-22T03:48:18.838Z,2.07
2023-12-22T03:50:45.623Z,1.73
2023-12-22T03:53:12.463Z,2.00
2023-12-22T03:55:39.399Z,1.50
2023-12-22T03:58:08.343Z,1.97
2023-12-22T04:00:35.622Z,1.77
2023-12-22T04:03:02.918Z,2.37
2023-12-22T04:05:29.776Z,1.90
2023-12-22T04:07:56.612Z,1.30
2023-12-22T04:10:23.376Z,1.77
2023-12-22T04:12:50.277Z,1.80
2023-12-22T04:15:16.990Z,2.20
2023-12-22T04:17:43.770Z,2.10
2023-12-22T04:20:10.717Z,2.13
2023-12-22T04:22:37.440Z,2.77
2023-12-22T04:25:04.587Z,1.90
2023-12-22T04:27:31.449Z,1.80
2023-12-22T04:29:58.167Z,1.60
2023-12-22T04:32:24.871Z,2.33
2023-12-22T04:34:51.662Z,1.57
2023-12-22T04:37:18.555Z,1.53
2023-12-22T04:39:45.461Z,1.70
2023-12-22T04:42:12.433Z,1.60
2023-12-22T04:44:39.181Z,1.80
2023-12-22T04:47:06.268Z,1.50
2023-12-22T04:49:33.061Z,2.17
2023-12-22T04:52:02.499Z,1.50
2023-12-22T04:54:29.634Z,1.50
2023-12-22T04:56:56.408Z,2.23
2023-12-22T04:59:23.153Z,1.93
2023-12-22T05:01:50.324Z,2.10
2023-12-22T05:04:18.527Z,1.40
2023-12-22T05:06:46.444Z,1.50
2023-12-22T05:09:13.523Z,2.00
2023-12-22T05:11:40.501Z,2.00
2023-12-22T05:14:07.310Z,1.43
2023-12-22T05:16:34.863Z,1.40
2023-12-22T05:19:02.147Z,1.80
2023-12-22T05:21:29.073Z,1.63
2023-12-22T05:23:55.884Z,1.70
2023-12-22T05:26:22.936Z,1.63
2023-12-22T05:28:52.659Z,1.60
2023-12-22T05:31:20.884Z,1.50
2023-12-22T05:33:47.778Z,1.50
2023-12-22T05:36:14.671Z,1.50
2023-12-22T05:38:41.584Z,1.70
2023-12-22T05:41:08.334Z,1.80
2023-12-22T05:43:35.149Z,1.40
2023-12-22T05:46:01.899Z,1.70
2023-12-22T05:48:29.109Z,2.00
2023-12-22T05:50:59.133Z,1.80
2023-12-22T05:53:26.150Z,2.43
2023-12-22T05:55:53.012Z,1.67
2023-12-22T05:58:19.806Z,1.57
2023-12-22T06:00:46.695Z,1.97
2023-12-22T06:03:15.277Z,1.70
2023-12-22T06:05:42.369Z,1.43
2023-12-22T06:08:10.868Z,2.30
2023-12-22T06:10:37.628Z,2.07
2023-12-22T06:13:05.743Z,2.10
2023-12-22T06:15:32.532Z,2.13
2023-12-22T06:17:59.330Z,2.13
2023-12-22T06:20:27.323Z,2.00
2023-12-22T06:22:54.081Z,2.43
2023-12-22T06:25:20.997Z,2.00
2023-12-22T06:27:47.951Z,1.73
2023-12-22T06:30:15.207Z,2.33
2023-12-22T06:32:42.422Z,1.57
2023-12-22T06:35:13.472Z,1.73
2023-12-22T06:37:42.209Z,1.73
2023-12-22T06:40:09.313Z,2.30
2023-12-22T06:42:36.020Z,2.37
2023-12-22T06:45:02.910Z,1.77
2023-12-22T06:47:32.155Z,1.93
2023-12-22T06:49:59.413Z,2.33
2023-12-22T06:52:26.175Z,2.00
2023-12-22T06:54:53.429Z,1.90
2023-12-22T06:57:21.741Z,2.00
2023-12-22T06:59:51.107Z,2.10
2023-12-22T07:02:22.225Z,2.20
2023-12-22T07:05:20.682Z,2.60
2023-12-22T07:07:48.113Z,2.03
2023-12-22T07:10:15.020Z,2.10
2023-12-22T07:12:43.433Z,2.33
2023-12-22T07:15:11.491Z,2.70
2023-12-22T07:17:38.591Z,2.47
2023-12-22T07:20:05.974Z,2.90
2023-12-22T07:22:32.818Z,1.87
2023-12-22T07:24:59.893Z,1.73
2023-12-22T07:27:27.729Z,1.90
2023-12-22T07:29:55.490Z,1.70
2023-12-22T07:32:22.390Z,1.97
2023-12-22T07:34:49.311Z,1.50
2023-12-22T07:37:16.112Z,1.60
2023-12-22T07:39:44.147Z,2.43
2023-12-22T07:42:10.988Z,1.63
2023-12-22T07:44:37.762Z,1.60
2023-12-22T07:47:05.877Z,1.57
2023-12-22T07:49:33.335Z,1.40
2023-12-22T07:52:02.093Z,1.63
2023-12-22T07:54:29.886Z,1.47
2023-12-22T07:56:56.645Z,1.27
2023-12-22T07:59:30.357Z,1.23
2023-12-22T08:01:58.964Z,1.60
2023-12-22T08:04:25.932Z,1.43
2023-12-22T08:06:53.441Z,1.30
2023-12-22T08:09:20.536Z,1.67
2023-12-22T08:11:48.298Z,1.40
2023-12-22T08:14:15.107Z,1.43
2023-12-22T08:16:42.092Z,1.50
2023-12-22T08:19:09.047Z,1.30
2023-12-22T08:21:44.357Z,1.40
2023-12-22T08:24:19.481Z,1.67
2023-12-22T08:26:52.757Z,1.30
2023-12-22T08:29:22.504Z,1.37
2023-12-22T08:31:49.519Z,1.83
2023-12-22T08:34:16.438Z,1.47
2023-12-22T08:36:44.189Z,1.37
2023-12-22T08:39:11.821Z,1.73
2023-12-22T08:41:39.451Z,1.37
2023-12-22T08:44:09.895Z,1.70
2023-12-22T08:46:36.890Z,2.37
2023-12-22T08:49:04.640Z,1.77
2023-12-22T08:51:31.921Z,1.80
2023-12-22T08:53:59.519Z,1.57
2023-12-22T08:56:26.700Z,1.90
2023-12-22T08:58:56.069Z,2.43
2023-12-22T09:01:23.422Z,1.87
2023-12-22T09:03:50.285Z,2.30
2023-12-22T09:06:21.978Z,2.40
2023-12-22T09:08:49.394Z,2.27
2023-12-22T09:11:20.986Z,2.30
2023-12-22T09:13:47.897Z,1.93
2023-12-22T09:16:17.656Z,2.23
2023-12-22T09:18:45.942Z,2.43
2023-12-22T09:21:12.965Z,2.40
2023-12-22T09:23:39.723Z,2.07
2023-12-22T09:26:06.544Z,2.20
2023-12-22T09:28:33.568Z,2.37
2023-12-22T09:31:00.643Z,2.97
2023-12-22T09:33:27.846Z,2.97
2023-12-22T09:35:55.225Z,3.17
2023-12-22T09:38:24.935Z,3.10
2023-12-22T09:40:52.216Z,3.13
2023-12-22T09:43:20.846Z,2.80
2023-12-22T09:45:48.961Z,2.37
2023-12-22T09:48:18.861Z,2.40
2023-12-22T09:50:45.768Z,3.30
2023-12-22T09:53:14.784Z,3.83
2023-12-22T09:55:45.609Z,3.83
2023-12-22T09:58:13.603Z,4.73
2023-12-22T10:00:40.963Z,3.93
2023-12-22T10:03:08.911Z,3.93
2023-12-22T10:05:35.827Z,3.53
2023-12-22T10:08:05.505Z,3.20
2023-12-22T10:10:33.554Z,4.70
2023-12-22T10:13:04.732Z,4.20
2023-12-22T10:15:31.920Z,4.43
2023-12-22T10:17:58.882Z,5.30
2023-12-22T10:20:25.713Z,4.03
2023-12-22T10:22:52.484Z,3.63
2023-12-22T10:25:28.949Z,3.87
2023-12-22T10:27:56.043Z,3.13
2023-12-22T10:30:24.185Z,3.80
2023-12-22T10:32:52.945Z,2.60
2023-12-22T10:35:23.567Z,4.17
2023-12-22T10:37:54.927Z,3.00
2023-12-22T10:40:23.764Z,3.03
2023-12-22T10:42:52.254Z,3.30
2023-12-22T10:45:20.762Z,3.00
2023-12-22T10:47:52.111Z,3.63
2023-12-22T10:50:21.028Z,3.13
2023-12-22T10:52:52.264Z,3.87
2023-12-22T10:55:20.032Z,2.70
2023-12-22T10:57:48.264Z,3.20
2023-12-22T11:00:21.857Z,3.53
2023-12-22T11:02:50.232Z,2.90
2023-12-22T11:05:20.658Z,2.80
2023-12-22T11:07:54.436Z,2.90
2023-12-22T11:10:22.638Z,3.43
2023-12-22T11:12:51.185Z,3.00
2023-12-22T11:15:19.364Z,3.00
2023-12-22T11:17:49.921Z,2.80
2023-12-22T11:20:17.560Z,2.90
2023-12-22T11:22:45.760Z,2.63
2023-12-22T11:25:17.492Z,3.03
2023-12-22T11:27:48.083Z,3.00
2023-12-22T11:30:15.822Z,2.70
2023-12-22T11:32:44.894Z,2.90
2023-12-22T11:35:12.492Z,3.13
2023-12-22T11:37:40.300Z,4.63
2023-12-22T11:40:07.880Z,2.93
2023-12-22T11:42:39.527Z,2.20
2023-12-22T11:45:06.631Z,2.47
2023-12-22T11:47:35.716Z,2.90
2023-12-22T11:50:02.670Z,2.20
2023-12-22T11:52:31.212Z,2.30
2023-12-22T11:54:58.075Z,2.60
2023-12-22T11:57:41.186Z,2.67
2023-12-22T12:00:27.960Z,2.87
2023-12-22T12:02:57.748Z,2.43
2023-12-22T12:05:24.706Z,1.83
2023-12-22T12:07:52.146Z,2.63
2023-12-22T12:10:35.054Z,2.80
2023-12-22T12:13:09.231Z,2.00
2023-12-22T12:15:36.991Z,2.00
2023-12-22T12:18:05.415Z,2.20
2023-12-22T12:20:33.700Z,3.33
2023-12-22T12:23:02.577Z,3.40
2023-12-22T12:25:35.795Z,3.63
2023-12-22T12:28:08.487Z,3.03
2023-12-22T12:30:37.196Z,3.30
2023-12-22T12:33:11.926Z,2.90
2023-12-22T12:35:44.000Z,8.20
2023-12-22T12:38:13.120Z,3.93
2023-12-22T12:40:41.955Z,3.20
2023-12-22T12:43:09.137Z,3.87
2023-12-22T12:45:35.949Z,3.83
2023-12-22T12:48:06.140Z,3.57
2023-12-22T12:50:35.400Z,4.13
2023-12-22T12:53:03.024Z,3.50
2023-12-22T12:55:31.005Z,1.93
2023-12-22T12:57:58.084Z,3.90
2023-12-22T13:00:32.301Z,3.77
2023-12-22T13:03:08.436Z,3.43
2023-12-22T13:05:37.713Z,3.37
2023-12-22T13:08:10.856Z,3.40
2023-12-22T13:10:38.558Z,3.70
2023-12-22T13:13:05.656Z,2.73
2023-12-22T13:15:32.656Z,3.10
2023-12-22T13:18:00.042Z,2.20
2023-12-22T13:20:28.449Z,2.60
2023-12-22T13:22:55.946Z,3.10
2023-12-22T13:25:24.564Z,2.40
2023-12-22T13:27:53.324Z,2.83
2023-12-22T13:30:39.624Z,2.10
2023-12-22T13:33:06.714Z,2.00
2023-12-22T13:35:38.724Z,2.53
2023-12-22T13:38:08.863Z,3.47
2023-12-22T13:40:36.902Z,2.87
2023-12-22T13:43:04.076Z,3.80
2023-12-22T13:45:32.699Z,3.30
2023-12-22T13:47:59.866Z,3.33
2023-12-22T13:50:26.834Z,3.30
2023-12-22T13:52:53.812Z,2.93
2023-12-22T13:55:24.107Z,2.80
2023-12-22T13:58:01.740Z,2.30
2023-12-22T14:00:32.517Z,2.40
2023-12-22T14:02:59.842Z,1.83
2023-12-22T14:05:30.473Z,2.30
2023-12-22T14:07:58.798Z,3.17
2023-12-22T14:10:25.661Z,3.13
2023-12-22T14:12:52.386Z,2.10
2023-12-22T14:15:19.322Z,2.80
2023-12-22T14:17:46.040Z,3.60
2023-12-22T14:20:13.344Z,2.80
2023-12-22T14:22:40.745Z,2.00
2023-12-22T14:25:08.426Z,2.60
2023-12-22T14:27:35.241Z,2.73
2023-12-22T14:30:02.141Z,2.50
2023-12-22T14:32:32.147Z,2.23
2023-12-22T14:34:59.470Z,2.47
2023-12-22T14:37:27.247Z,3.57
2023-12-22T14:39:54.470Z,3.20
2023-12-22T14:42:21.255Z,3.43
2023-12-22T14:44:48.031Z,3.07
2023-12-22T14:47:15.326Z,3.10
2023-12-22T14:49:42.312Z,3.47
2023-12-22T14:52:09.358Z,2.67
2023-12-22T14:54:36.516Z,2.50
2023-12-22T14:57:03.298Z,3.03
2023-12-22T14:59:30.417Z,2.67
2023-12-22T15:01:58.110Z,2.90
2023-12-22T15:04:25.141Z,3.57
2023-12-22T15:07:00.765Z,3.20
2023-12-22T15:09:29.190Z,4.13
2023-12-22T15:11:56.738Z,2.70
2023-12-22T15:14:24.093Z,2.90
2023-12-22T15:16:53.808Z,3.47
2023-12-22T15:19:21.101Z,3.97
2023-12-22T15:21:48.149Z,5.73
2023-12-22T15:24:15.126Z,5.40
2023-12-22T15:26:41.906Z,3.60
2023-12-22T15:29:10.456Z,5.73
2023-12-22T15:31:38.197Z,4.20
2023-12-22T15:34:07.021Z,5.10
2023-12-22T15:36:35.227Z,5.23
2023-12-22T15:39:02.695Z,4.77
2023-12-22T15:41:32.678Z,3.93
2023-12-22T15:44:00.756Z,5.60
2023-12-22T15:46:27.818Z,5.07
2023-12-22T15:48:54.781Z,4.43
2023-12-22T15:51:22.132Z,5.10
2023-12-22T15:53:49.264Z,3.73
2023-12-22T15:56:18.173Z,3.47
2023-12-22T15:58:46.247Z,3.53
2023-12-22T16:01:16.256Z,4.40
2023-12-22T16:03:48.889Z,4.47
2023-12-22T16:06:17.205Z,2.93
2023-12-22T16:08:44.946Z,3.80
2023-12-22T16:11:12.135Z,4.20
2023-12-22T16:13:42.114Z,4.07
2023-12-22T16:16:15.289Z,3.67
2023-12-22T16:18:42.172Z,5.53
2023-12-22T16:21:09.089Z,5.30
2023-12-22T16:23:35.815Z,5.27
2023-12-22T16:26:03.783Z,3.63
2023-12-22T16:28:30.680Z,3.70
2023-12-22T16:30:57.564Z,3.90
2023-12-22T16:33:24.661Z,4.17
2023-12-22T16:35:51.452Z,6.50
2023-12-22T16:38:18.245Z,4.07
2023-12-22T16:40:45.815Z,2.63
2023-12-22T16:43:13.338Z,2.57
2023-12-22T16:45:44.432Z,3.97
2023-12-22T16:48:11.902Z,3.33
2023-12-22T16:50:38.737Z,3.40
2023-12-22T16:53:05.926Z,2.80
2023-12-22T16:55:32.898Z,6.03
2023-12-22T16:58:00.426Z,4.17
2023-12-22T17:00:27.834Z,4.23
2023-12-22T17:02:56.434Z,5.03
2023-12-22T17:05:23.773Z,4.83
2023-12-22T17:07:50.945Z,6.70
2023-12-22T17:10:18.356Z,4.37
2023-12-22T17:12:45.756Z,3.90
2023-12-22T17:15:12.839Z,4.30
2023-12-22T17:17:39.980Z,3.43
2023-12-22T17:20:09.548Z,4.70
2023-12-22T17:22:36.822Z,4.53
2023-12-22T17:25:03.984Z,4.40
2023-12-22T17:27:31.666Z,3.30
2023-12-22T17:29:58.768Z,3.53
2023-12-22T17:32:25.670Z,5.43
2023-12-22T17:34:52.548Z,4.73
2023-12-22T17:37:19.280Z,3.70
2023-12-22T17:39:46.161Z,4.57
2023-12-22T17:42:12.882Z,3.00
2023-12-22T17:44:39.643Z,3.80
2023-12-22T17:47:06.637Z,3.70
2023-12-22T17:49:34.404Z,9.30
2023-12-22T17:52:01.407Z,4.30
2023-12-22T17:54:28.282Z,6.37
2023-12-22T17:56:55.222Z,4.53
2023-12-22T17:59:22.420Z,6.00
2023-12-22T18:01:52.462Z,7.13
2023-12-22T18:04:19.438Z,5.43
2023-12-22T18:06:46.391Z,4.97
2023-12-22T18:09:14.107Z,5.30
2023-12-22T18:11:45.083Z,4.93
2023-12-22T18:14:12.850Z,3.90
2023-12-22T18:16:43.566Z,7.67
2023-12-22T18:19:11.251Z,4.60
2023-12-22T18:21:38.559Z,5.30
2023-12-22T18:24:05.669Z,4.87
2023-12-22T18:26:32.589Z,4.53
2023-12-22T18:28:59.573Z,4.80
2023-12-22T18:31:27.072Z,4.83
2023-12-22T18:33:54.313Z,6.77
2023-12-22T18:36:21.268Z,3.87
2023-12-22T18:38:48.126Z,6.57
2023-12-22T18:41:15.100Z,6.53
2023-12-22T18:43:41.942Z,5.13
2023-12-22T18:46:08.947Z,6.83
2023-12-22T18:48:36.103Z,8.23
2023-12-22T18:51:03.218Z,5.93
2023-12-22T18:53:30.002Z,4.53
2023-12-22T18:55:59.083Z,3.30
2023-12-22T18:58:32.547Z,3.83
2023-12-22T19:00:59.577Z,5.73
2023-12-22T19:03:26.801Z,5.63
2023-12-22T19:05:53.916Z,4.57
2023-12-22T19:08:20.742Z,3.43
2023-12-22T19:10:47.680Z,5.33
2023-12-22T19:13:15.058Z,4.90
2023-12-22T19:15:42.282Z,7.10
2023-12-22T19:18:09.329Z,11.53
2023-12-22T19:20:36.543Z,7.67
2023-12-22T19:23:03.511Z,3.80
2023-12-22T19:25:30.227Z,4.20
2023-12-22T19:27:59.548Z,3.80
2023-12-22T19:30:27.870Z,4.17
2023-12-22T19:32:54.735Z,5.70
2023-12-22T19:35:21.825Z,3.23
2023-12-22T19:37:49.134Z,3.50
2023-12-22T19:40:16.372Z,3.03
2023-12-22T19:42:43.289Z,4.17
2023-12-22T19:45:12.758Z,6.63
2023-12-22T19:47:40.134Z,5.13
2023-12-22T19:50:08.415Z,4.00
2023-12-22T19:52:35.467Z,3.03
2023-12-22T19:55:03.148Z,2.33
2023-12-22T19:57:31.543Z,4.97
2023-12-22T19:59:58.257Z,3.43
2023-12-22T20:02:27.081Z,3.20
2023-12-22T20:04:55.193Z,2.97
2023-12-22T20:07:21.940Z,4.13
2023-12-22T20:09:48.726Z,3.47
2023-12-22T20:12:15.454Z,2.90
2023-12-22T20:14:42.230Z,3.87
2023-12-22T20:17:09.271Z,4.27
2023-12-22T20:19:36.501Z,3.63
2023-12-22T20:22:05.421Z,3.00
2023-12-22T20:24:32.721Z,2.30
2023-12-22T20:26:59.601Z,2.17
2023-12-22T20:29:26.370Z,2.10
2023-12-22T20:31:53.167Z,4.63
2023-12-22T20:34:19.906Z,3.40
2023-12-22T20:36:46.823Z,2.57
2023-12-22T20:39:13.598Z,3.10
2023-12-22T20:41:41.390Z,4.13
2023-12-22T20:44:08.233Z,3.83
2023-12-22T20:46:35.241Z,2.70
2023-12-22T20:49:04.297Z,2.60
2023-12-22T20:51:33.321Z,2.50
2023-12-22T20:54:01.203Z,3.10
2023-12-22T20:56:28.564Z,3.00
2023-12-22T20:58:56.816Z,2.33
2023-12-22T21:01:24.656Z,2.67
2023-12-22T21:03:51.484Z,2.57
2023-12-22T21:06:18.731Z,3.00
2023-12-22T21:08:45.598Z,2.20
2023-12-22T21:11:12.751Z,2.80
2023-12-22T21:13:42.907Z,3.70
2023-12-22T21:16:10.153Z,3.17
2023-12-22T21:18:38.234Z,3.07
2023-12-22T21:21:06.571Z,3.33
2023-12-22T21:23:33.762Z,3.30
2023-12-22T21:26:01.093Z,2.20
2023-12-22T21:28:27.875Z,2.43
2023-12-22T21:30:54.771Z,3.40
2023-12-22T21:33:21.943Z,2.00
2023-12-22T21:35:48.756Z,3.40
2023-12-22T21:38:15.731Z,1.90
2023-12-22T21:40:42.706Z,1.80
2023-12-22T21:43:09.431Z,2.17
2023-12-22T21:45:36.660Z,1.47
2023-12-22T21:48:04.627Z,1.30
2023-12-22T21:50:31.552Z,1.60
2023-12-22T21:52:59.272Z,1.50
2023-12-22T21:55:26.111Z,2.10
2023-12-22T21:57:53.340Z,2.90
2023-12-22T22:00:20.519Z,2.40
2023-12-22T22:02:47.273Z,1.80
2023-12-22T22:05:14.131Z,2.27
2023-12-22T22:07:41.101Z,3.67
2023-12-22T22:10:08.602Z,3.90
2023-12-22T22:12:35.303Z,2.90
2023-12-22T22:15:03.989Z,3.00
2023-12-22T22:17:33.292Z,3.13
2023-12-22T22:20:00.133Z,2.80
2023-12-22T22:22:29.439Z,2.03
2023-12-22T22:24:56.387Z,2.60
2023-12-22T22:27:23.054Z,2.63
2023-12-22T22:29:50.355Z,2.10
2023-12-22T22:32:17.985Z,2.03
2023-12-22T22:34:44.788Z,2.10
2023-12-22T22:37:11.518Z,2.33
2023-12-22T22:39:38.302Z,2.00
2023-12-22T22:42:05.250Z,2.30
2023-12-22T22:44:32.590Z,2.20
2023-12-22T22:46:59.308Z,2.10
2023-12-22T22:49:26.266Z,2.03
2023-12-22T22:51:53.557Z,3.00
2023-12-22T22:54:20.550Z,3.10
2023-12-22T22:56:47.219Z,2.37
2023-12-22T22:59:14.194Z,2.47
2023-12-22T23:01:40.960Z,2.00
2023-12-22T23:04:07.808Z,1.87
2023-12-22T23:06:34.592Z,2.00
2023-12-22T23:09:01.400Z,2.20
2023-12-22T23:11:28.256Z,2.50
2023-12-22T23:13:55.053Z,2.60
2023-12-22T23:16:21.850Z,2.23
2023-12-22T23:18:48.834Z,1.80
2023-12-22T23:21:15.585Z,1.90
2023-12-22T23:23:42.686Z,1.70
2023-12-22T23:26:09.532Z,1.70
2023-12-22T23:28:36.441Z,2.63
2023-12-22T23:31:03.808Z,2.33
2023-12-22T23:33:30.845Z,2.43
2023-12-22T23:36:03.926Z,3.17
2023-12-22T23:38:36.885Z,2.60
2023-12-22T23:41:04.045Z,2.50
2023-12-22T23:43:31.083Z,2.73
2023-12-22T23:45:57.804Z,2.87
2023-12-22T23:48:26.218Z,3.87
2023-12-22T23:50:52.940Z,2.93
2023-12-22T23:53:19.959Z,3.27
2023-12-22T23:55:47.615Z,3.30
2023-12-22T23:58:14.411Z,3.60
